CJQ3 weather

Carlyle Airport
Carlyle, Saskatchewan, Canada

Public forecast

Using degrees Celsius for public forecast. Weather courtesy of forecast.io.

Closest aviation weather report (METAR) to Carlyle Airport

Closest report is Estevan Airport, 37.2 nm (68.9 km) SW. Retrieved 2020/02/21 04:00 UTC (1 hour ago):

CYEN 210400Z AUTO 22018G26KT 9SM CLR M04/M09 A2997 RMK SLP190

Closest aviation forecast (TAF) to Carlyle Airport

Forecast is more than 6 hours old.

Closest forecast is Estevan Airport, 37.2 nm (68.9 km) SW. Retrieved 2020/02/20 18:00 UTC (11 hours ago):

TAF CYEN 201738Z 2018/2024 22012KT P6SM SKC RMK FCST BASED ON AUTO OBS NXT FCST WILL BE ISSUED AT 211145Z